Abu Musa, Iran

10:18 PM IRDT on September 02, 2014 (GMT +0430)
Bandar Lengeh | Change Station
CLOSE
Current Station
Airport
Location: Bandar Lengeh,
Elevation: 75 ft
Nearby Weather Stations

Elev 75 ft 26.53 °N, 54.82 °E | Updated 48 minutes ago

Clear
Clear
91 °F
Feels Like 105 °F
N
7
Wind Variable Wind from West

Today
High -- | Low -- °F
--% Chance of Precip.
Yesterday
High -- | Low -- °F
Precip. -- in
6:31 AM 7:09 PM
First Quarter, 53% visible
Pressure 29.50 in
Visibility 5.0 miles
Clouds
Heat Index 105 °F
Dew Point 77 °F
Humidity 63%
Rainfall 0.00 in
Snow Depth Not available.
UV Not available.
Pollen Not available.
Air Quality Not available.
Flu Activity Not available.
METAR OIBL 021700Z 28006KT 8000 NSC 33/25 Q0999

More Conditions Fewer Conditions

Pressure 29.50 in
Visibility 5.0 miles
Clouds
Heat Index 105 °F
Dew Point 77 °F
Humidity 63%
Rainfall 0.00 in
Snow Depth Not available.
UV Not available.
Pollen Not available.
Air Quality Not available.
Flu Activity Not available.
METAR OIBL 021700Z 28006KT 8000 NSC 33/25 Q0999

More Conditions Fewer Conditions

10-Day Weather Forecast

Almanac

Astronomy

Sep. 02, 2014 Rise Set
Actual Time 6:31 AM IRDT 7:09 PM IRDT
Civil Twilight 6:07 AM IRDT 7:32 PM IRDT
Nautical Twilight 5:40 AM IRDT 8:00 PM IRDT
Astronomical Twilight 5:12 AM IRDT 8:27 PM IRDT
Moon 1:11 PM IRDT 12:22 AM IRDT (9/3)
Length of Visible Light 13h 24m
Length of Day
12h 38m
Tomorrow will be 1m 27s shorter.
First Quarter, 53% of the Moon is Illuminated
Today
First Quarter
Sep 8
Full
Sep 15
Last Quarter
Sep 24
New
Oct 1
First Quarter

Today's Extremes

Country Highs Country Lows

Community

WunderPhotos

Upload Photos

1,749,724 photos uploaded!

WunderBlogs® & News

Nearby

Snow Depth

Not available.

Earthquake Activity

City Distance Mag. Time & Date
No recent earthquake activity has been reported nearby.
Minimum magnitude displayed is 2.5.

Coastal Water Temperatures

Place Temperature
No Stations Reporting

Nearby Weather Stations